Portada
METAR-TAF:

METAR-TAF

Aeropuertos :

Ekaterimburgo, Rusia

Aeropuerto de Ekaterimburgo-Koltsovo

latitud: 56-50N, longitud: 060-38E, altitud: 237 m

Observación

El informe se hizo hace 30 minutos, a las 15:00 UTC
Viento 10 kt del este-sureste
Temperatura -23°C
Humedad 52%
Presión 1047 hPa
Visibilidad 10 km o más
sin nubes por debajo de 1500 m y sin presencia de cumulonimbus.

METAR: USSS 231500Z 12005MPS CAVOK M23/M30 Q1047 R08L/450145 NOSIG RMK QFE765/1020

Hora: 20:30 (15:30 UTC)

Pronóstico

El informe se hizo hace 1 hora y 36 minutos, a las 13:54 UTC
Pronóstico válido del 23 a las 15 UTC al 24 a las 15 UTC
Viento 12 kt del este-sureste
Visibilidad 10 km o más
Cielo nuboso a una altura de 3000 ft
Temporalmente
del 23 a las 15 UTC al 24 a las 03 UTC
Viento 23 kt del sureste
Ventisca baja de nieve

TAF: USSS 231354Z 2315/2415 12006MPS 9999 BKN030 TEMPO 2315/2403 13012MPS DRSN

Observaciones y pronósticos meteorológicos de más de 4000 aeropuertos (mensajes METAR y TAF).

Los puntos amarillos y rojos representan las estaciones disponibles.

Ponga el ratón en el punto deseado para ver el nombre de la estación.

Haga clic para ver las observaciones y los pronósticos meteorológicos.

Para cambiar el mapa : haga clic en los botones verdes con una cruz de color negro para hacer un zoom, en el botón verde con un guión para alejar o en las flechas verdes para mapas adyacentes.


METAR-TAF: